createdAt,value
2018-05-14T00:00:14.154Z,11.98
2018-05-14T00:00:45.364Z,13.10
2018-05-14T00:01:16.617Z,12.23
2018-05-14T00:01:47.837Z,10.13
2018-05-14T00:02:19.097Z,10.30
2018-05-14T00:02:50.430Z,10.68
2018-05-14T00:03:21.651Z,9.93
2018-05-14T00:03:53.277Z,9.70
2018-05-14T00:04:24.521Z,10.85
2018-05-14T00:04:55.748Z,10.52
2018-05-14T00:05:26.950Z,10.20
2018-05-14T00:05:58.156Z,10.93
2018-05-14T00:06:29.379Z,11.15
2018-05-14T00:07:00.630Z,11.80
2018-05-14T00:07:31.844Z,9.95
2018-05-14T00:08:03.040Z,13.27
2018-05-14T00:08:34.256Z,9.85
2018-05-14T00:09:05.475Z,10.27
2018-05-14T00:09:36.685Z,12.18
2018-05-14T00:10:07.937Z,9.65
2018-05-14T00:10:39.150Z,12.15
2018-05-14T00:11:10.360Z,11.00
2018-05-14T00:11:41.574Z,10.15
2018-05-14T00:12:12.790Z,10.77
2018-05-14T00:12:44.004Z,11.43
2018-05-14T00:13:15.277Z,9.50
2018-05-14T00:13:46.495Z,11.52
2018-05-14T00:14:17.697Z,9.80
2018-05-14T00:14:48.909Z,10.55
2018-05-14T00:15:20.169Z,10.60
2018-05-14T00:15:51.373Z,9.27
2018-05-14T00:16:22.573Z,9.68
2018-05-14T00:16:53.799Z,12.37
2018-05-14T00:17:25.011Z,11.60
2018-05-14T00:17:56.248Z,11.07
2018-05-14T00:18:27.458Z,13.02
2018-05-14T00:18:58.666Z,11.35
2018-05-14T00:19:29.924Z,10.63
2018-05-14T00:20:01.124Z,11.55
2018-05-14T00:20:32.453Z,10.38
2018-05-14T00:21:03.662Z,10.68
2018-05-14T00:21:34.870Z,11.02
2018-05-14T00:22:06.078Z,12.05
2018-05-14T00:22:37.341Z,10.30
2018-05-14T00:23:08.557Z,10.07
2018-05-14T00:23:39.761Z,11.63
2018-05-14T00:24:10.974Z,17.30
2018-05-14T00:24:42.189Z,13.27
2018-05-14T00:25:13.400Z,15.50
2018-05-14T00:25:44.629Z,21.50
2018-05-14T00:26:15.845Z,16.48
2018-05-14T00:26:47.071Z,22.35
2018-05-14T00:27:18.277Z,11.25
2018-05-14T00:27:49.537Z,15.13
2018-05-14T00:28:20.745Z,19.80
2018-05-14T00:28:51.998Z,11.27
2018-05-14T00:29:23.208Z,12.40
2018-05-14T00:29:54.423Z,12.43
2018-05-14T00:30:25.653Z,14.85
2018-05-14T00:30:56.871Z,11.73
2018-05-14T00:31:28.089Z,12.05
2018-05-14T00:31:59.296Z,10.82
2018-05-14T00:32:30.509Z,12.73
2018-05-14T00:33:01.757Z,11.02
2018-05-14T00:33:32.970Z,10.93
2018-05-14T00:34:04.173Z,11.95
2018-05-14T00:34:35.389Z,10.98
2018-05-14T00:35:06.597Z,10.27
2018-05-14T00:35:37.841Z,11.85
2018-05-14T00:36:09.657Z,11.07
2018-05-14T00:36:40.873Z,12.52
2018-05-14T00:37:12.081Z,12.70
2018-05-14T00:37:43.311Z,12.43
2018-05-14T00:38:14.578Z,14.50
2018-05-14T00:38:45.793Z,11.82
2018-05-14T00:39:17.001Z,10.57
2018-05-14T00:39:48.224Z,11.20
2018-05-14T00:40:19.453Z,10.65
2018-05-14T00:40:50.717Z,12.13
2018-05-14T00:41:21.937Z,10.43
2018-05-14T00:41:53.148Z,12.48
2018-05-14T00:42:24.369Z,13.10
2018-05-14T00:42:56.850Z,11.27
2018-05-14T00:43:28.072Z,10.48
2018-05-14T00:43:59.277Z,11.48
2018-05-14T00:44:30.489Z,11.45
2018-05-14T00:45:01.745Z,12.88
2018-05-14T00:45:32.957Z,11.12
2018-05-14T00:46:04.245Z,10.88
2018-05-14T00:46:35.473Z,11.55
2018-05-14T00:47:06.725Z,12.75
2018-05-14T00:47:37.950Z,11.02
2018-05-14T00:48:09.197Z,11.48
2018-05-14T00:48:40.419Z,12.07
2018-05-14T00:49:11.646Z,13.30
2018-05-14T00:49:42.863Z,15.88
2018-05-14T00:50:14.125Z,11.75
2018-05-14T00:50:45.395Z,10.75
2018-05-14T00:51:16.744Z,11.57
2018-05-14T00:51:47.967Z,10.70
2018-05-14T00:52:19.182Z,10.85
2018-05-14T00:52:50.411Z,10.82
2018-05-14T00:53:21.621Z,11.07
2018-05-14T00:53:52.824Z,11.07
2018-05-14T00:54:24.029Z,11.10
2018-05-14T00:54:55.236Z,13.93
2018-05-14T00:55:26.450Z,12.40
2018-05-14T00:55:57.676Z,12.80
2018-05-14T00:56:28.924Z,11.12
2018-05-14T00:57:00.141Z,11.90
2018-05-14T00:57:31.354Z,10.52
2018-05-14T00:58:02.558Z,11.88
2018-05-14T00:58:33.767Z,11.10
2018-05-14T00:59:04.975Z,12.32
2018-05-14T00:59:36.208Z,11.35
2018-05-14T01:00:07.485Z,11.25
2018-05-14T01:00:38.719Z,10.68
2018-05-14T01:01:09.925Z,11.93
2018-05-14T01:01:41.153Z,10.60
2018-05-14T01:02:12.367Z,10.65
2018-05-14T01:02:43.589Z,11.88
2018-05-14T01:03:14.809Z,11.70
2018-05-14T01:03:46.014Z,10.48
2018-05-14T01:04:18.148Z,10.23
2018-05-14T01:04:49.373Z,10.00
2018-05-14T01:05:20.630Z,9.48
2018-05-14T01:05:51.864Z,10.55
2018-05-14T01:06:23.069Z,10.68
2018-05-14T01:06:54.274Z,11.77
2018-05-14T01:07:25.538Z,13.52
2018-05-14T01:07:56.821Z,10.32
2018-05-14T01:08:28.021Z,10.63
2018-05-14T01:08:59.233Z,12.37
2018-05-14T01:09:30.451Z,12.88
2018-05-14T01:10:01.673Z,10.85
2018-05-14T01:10:33.648Z,11.80
2018-05-14T01:11:04.853Z,12.05
2018-05-14T01:11:36.066Z,11.07
2018-05-14T01:12:07.295Z,10.95
2018-05-14T01:12:38.553Z,13.68
2018-05-14T01:13:09.757Z,11.30
2018-05-14T01:13:40.973Z,10.98
2018-05-14T01:14:12.237Z,15.55
2018-05-14T01:14:43.454Z,11.45
2018-05-14T01:15:14.681Z,11.05
2018-05-14T01:15:45.930Z,10.00
2018-05-14T01:16:17.190Z,10.13
2018-05-14T01:16:48.436Z,9.52
2018-05-14T01:17:19.649Z,8.32
2018-05-14T01:17:50.869Z,9.98
2018-05-14T01:18:22.088Z,10.77
2018-05-14T01:18:53.288Z,11.45
2018-05-14T01:19:24.518Z,10.63
2018-05-14T01:19:55.750Z,11.65
2018-05-14T01:20:26.960Z,12.15
2018-05-14T01:20:58.179Z,9.65
2018-05-14T01:21:29.433Z,9.27
2018-05-14T01:22:00.691Z,9.48
2018-05-14T01:22:32.251Z,9.23
2018-05-14T01:23:03.510Z,12.10
2018-05-14T01:23:34.768Z,9.85
2018-05-14T01:24:06.707Z,11.02
2018-05-14T01:24:37.977Z,11.10
2018-05-14T01:25:09.238Z,9.10
2018-05-14T01:25:40.495Z,9.77
2018-05-14T01:26:11.744Z,9.43
2018-05-14T01:26:42.950Z,9.13
2018-05-14T01:27:14.208Z,8.88
2018-05-14T01:27:45.443Z,9.15
2018-05-14T01:28:16.677Z,9.00
2018-05-14T01:28:47.919Z,9.57
2018-05-14T01:29:19.132Z,8.77
2018-05-14T01:29:50.345Z,9.50
2018-05-14T01:30:21.585Z,9.55
2018-05-14T01:30:52.794Z,8.68
2018-05-14T01:31:24.020Z,8.20
2018-05-14T01:31:55.228Z,8.95
2018-05-14T01:32:26.507Z,11.30
2018-05-14T01:32:57.794Z,10.43
2018-05-14T01:33:29.000Z,12.82
2018-05-14T01:34:00.201Z,9.73
2018-05-14T01:34:31.445Z,10.02
2018-05-14T01:35:02.667Z,11.02
2018-05-14T01:35:33.925Z,11.45
2018-05-14T01:36:05.137Z,12.43
2018-05-14T01:36:36.345Z,10.50
2018-05-14T01:37:07.546Z,9.77
2018-05-14T01:37:38.752Z,10.27
2018-05-14T01:38:09.973Z,11.27
2018-05-14T01:38:41.199Z,9.70
2018-05-14T01:39:12.434Z,9.20
2018-05-14T01:39:43.705Z,10.30
2018-05-14T01:40:14.947Z,9.15
2018-05-14T01:40:46.161Z,8.02
2018-05-14T01:41:17.433Z,9.55
2018-05-14T01:41:48.675Z,7.95
2018-05-14T01:42:19.922Z,7.82
2018-05-14T01:42:51.223Z,8.48
2018-05-14T01:43:23.060Z,8.43
2018-05-14T01:43:54.313Z,8.25
2018-05-14T01:44:25.561Z,9.35
2018-05-14T01:44:56.912Z,7.60
2018-05-14T01:45:28.198Z,8.95
2018-05-14T01:46:00.515Z,8.90
2018-05-14T01:46:32.257Z,8.07
2018-05-14T01:47:03.563Z,10.13
2018-05-14T01:47:34.812Z,9.35
2018-05-14T01:48:06.217Z,9.68
2018-05-14T01:48:37.902Z,10.27
2018-05-14T01:49:10.841Z,8.05
2018-05-14T01:49:42.151Z,10.02
2018-05-14T01:50:13.393Z,7.80
2018-05-14T01:50:45.484Z,8.15
2018-05-14T01:51:16.713Z,8.52
2018-05-14T01:51:47.987Z,8.57
2018-05-14T01:52:19.185Z,7.60
2018-05-14T01:52:50.401Z,8.43
2018-05-14T01:53:21.661Z,8.20
2018-05-14T01:53:52.879Z,9.63
2018-05-14T01:54:24.129Z,9.25
2018-05-14T01:54:55.336Z,8.90
2018-05-14T01:55:26.546Z,8.35
2018-05-14T01:55:57.749Z,9.32
2018-05-14T01:56:28.958Z,9.63
2018-05-14T01:57:00.249Z,8.13
2018-05-14T01:57:31.452Z,8.93
2018-05-14T01:58:02.714Z,8.65
2018-05-14T01:58:33.921Z,8.85
2018-05-14T01:59:05.132Z,8.63
2018-05-14T01:59:36.363Z,9.05
2018-05-14T02:00:07.576Z,9.63
2018-05-14T02:00:38.786Z,10.45
2018-05-14T02:01:09.985Z,8.85
2018-05-14T02:01:41.202Z,8.95
2018-05-14T02:02:12.428Z,10.80
2018-05-14T02:02:43.640Z,8.95
2018-05-14T02:03:14.904Z,10.55
2018-05-14T02:03:46.127Z,9.45
2018-05-14T02:04:17.360Z,10.48
2018-05-14T02:04:48.592Z,9.88
2018-05-14T02:05:19.802Z,9.18
2018-05-14T02:05:51.029Z,9.82
2018-05-14T02:06:22.238Z,10.68
2018-05-14T02:06:53.472Z,9.63
2018-05-14T02:07:24.678Z,9.98
2018-05-14T02:07:55.889Z,10.30
2018-05-14T02:08:27.130Z,11.52
2018-05-14T02:08:58.336Z,10.18
2018-05-14T02:09:29.607Z,10.00
2018-05-14T02:10:00.824Z,9.88
2018-05-14T02:10:32.035Z,10.32
2018-05-14T02:11:03.246Z,10.10
2018-05-14T02:11:34.457Z,10.98
2018-05-14T02:12:05.671Z,11.07
2018-05-14T02:12:36.887Z,11.45
2018-05-14T02:13:08.104Z,10.73
2018-05-14T02:13:39.309Z,10.98
2018-05-14T02:14:10.573Z,12.43
2018-05-14T02:14:41.821Z,10.40
2018-05-14T02:15:13.041Z,10.20
2018-05-14T02:15:44.262Z,10.65
2018-05-14T02:16:15.571Z,10.23
2018-05-14T02:16:46.748Z,10.63
2018-05-14T02:17:17.972Z,10.32
2018-05-14T02:17:49.189Z,11.27
2018-05-14T02:18:20.391Z,11.18
2018-05-14T02:18:51.616Z,10.40
2018-05-14T02:19:22.832Z,10.95
2018-05-14T02:19:54.098Z,11.40
2018-05-14T02:20:25.325Z,10.57
2018-05-14T02:20:57.339Z,12.07
2018-05-14T02:21:28.543Z,11.45
2018-05-14T02:21:59.835Z,10.52
2018-05-14T02:22:31.063Z,10.13
2018-05-14T02:23:02.280Z,12.00
2018-05-14T02:23:33.500Z,10.50
2018-05-14T02:24:04.717Z,11.35
2018-05-14T02:24:35.965Z,10.52
2018-05-14T02:25:07.221Z,10.90
2018-05-14T02:25:38.429Z,12.35
2018-05-14T02:26:09.651Z,10.30
2018-05-14T02:26:40.869Z,12.50
2018-05-14T02:27:12.112Z,11.05
2018-05-14T02:27:43.320Z,10.43
2018-05-14T02:28:14.535Z,12.40
2018-05-14T02:28:45.750Z,11.88
2018-05-14T02:29:16.973Z,13.70
2018-05-14T02:29:48.196Z,9.93
2018-05-14T02:30:19.448Z,11.77
2018-05-14T02:30:50.689Z,10.85
2018-05-14T02:31:21.913Z,12.18
2018-05-14T02:31:53.134Z,11.65
2018-05-14T02:32:24.355Z,10.43
2018-05-14T02:32:55.576Z,11.38
2018-05-14T02:33:26.793Z,12.73
2018-05-14T02:33:58.014Z,10.63
2018-05-14T02:34:29.276Z,10.15
2018-05-14T02:35:00.485Z,9.85
2018-05-14T02:35:31.697Z,10.98
2018-05-14T02:36:02.919Z,11.32
2018-05-14T02:36:34.138Z,10.40
2018-05-14T02:37:05.419Z,10.93
2018-05-14T02:37:36.638Z,10.60
2018-05-14T02:38:07.885Z,10.00
2018-05-14T02:38:39.094Z,13.48
2018-05-14T02:39:10.302Z,10.38
2018-05-14T02:39:41.510Z,10.55
2018-05-14T02:40:12.753Z,10.55
2018-05-14T02:40:43.966Z,10.15
2018-05-14T02:41:15.231Z,10.82
2018-05-14T02:41:46.445Z,11.27
2018-05-14T02:42:17.670Z,12.07
2018-05-14T02:42:48.897Z,10.43
2018-05-14T02:43:20.165Z,12.20
2018-05-14T02:43:51.381Z,12.40
2018-05-14T02:44:22.590Z,10.45
2018-05-14T02:44:53.806Z,11.35
2018-05-14T02:45:25.012Z,10.15
2018-05-14T02:45:56.219Z,10.98
2018-05-14T02:46:27.480Z,10.35
2018-05-14T02:46:58.707Z,10.85
2018-05-14T02:47:29.935Z,11.50
2018-05-14T02:48:01.146Z,10.40
2018-05-14T02:48:32.350Z,11.52
2018-05-14T02:49:03.635Z,10.73
2018-05-14T02:49:34.811Z,12.35
2018-05-14T02:50:06.054Z,13.15
2018-05-14T02:50:37.260Z,10.05
2018-05-14T02:51:08.469Z,10.75
2018-05-14T02:51:39.535Z,11.85
2018-05-14T02:52:10.801Z,10.20
2018-05-14T02:52:42.017Z,10.20
2018-05-14T02:53:13.217Z,11.52
2018-05-14T02:53:44.425Z,10.45
2018-05-14T02:54:15.653Z,12.85
2018-05-14T02:54:46.873Z,10.60
2018-05-14T02:55:18.115Z,10.57
2018-05-14T02:55:49.352Z,9.65
2018-05-14T02:56:20.562Z,9.50
2018-05-14T02:56:51.769Z,9.52
2018-05-14T02:57:22.988Z,10.05
2018-05-14T02:57:54.210Z,12.35
2018-05-14T02:58:25.412Z,11.07
2018-05-14T02:58:56.624Z,11.30
2018-05-14T02:59:27.868Z,9.48
2018-05-14T02:59:59.153Z,9.32
2018-05-14T03:00:30.369Z,10.60
2018-05-14T03:01:01.580Z,9.65
2018-05-14T03:01:32.786Z,8.52
2018-05-14T03:02:04.045Z,9.23
2018-05-14T03:02:35.281Z,10.00
2018-05-14T03:03:06.485Z,9.60
2018-05-14T03:03:37.697Z,10.77
2018-05-14T03:04:08.913Z,12.10
2018-05-14T03:04:40.160Z,9.57
2018-05-14T03:05:11.382Z,12.18
2018-05-14T03:05:42.641Z,9.65
2018-05-14T03:06:13.849Z,11.70
2018-05-14T03:06:45.057Z,8.90
2018-05-14T03:07:16.266Z,11.80
2018-05-14T03:07:47.479Z,10.15
2018-05-14T03:08:18.876Z,9.90
2018-05-14T03:08:50.095Z,11.02
2018-05-14T03:09:21.302Z,12.82
2018-05-14T03:09:52.505Z,11.55
2018-05-14T03:10:23.718Z,9.52
2018-05-14T03:10:54.969Z,10.85
2018-05-14T03:11:26.179Z,12.45
2018-05-14T03:11:57.390Z,11.68
2018-05-14T03:12:28.619Z,9.18
2018-05-14T03:12:59.821Z,11.27
2018-05-14T03:13:31.039Z,10.32
2018-05-14T03:14:02.261Z,13.07
2018-05-14T03:14:33.477Z,10.27
2018-05-14T03:15:04.713Z,12.13
2018-05-14T03:15:35.961Z,10.40
2018-05-14T03:16:07.223Z,9.30
2018-05-14T03:16:38.429Z,10.60
2018-05-14T03:17:09.629Z,8.10
2018-05-14T03:17:40.843Z,11.25
2018-05-14T03:18:12.075Z,10.35
2018-05-14T03:18:43.280Z,10.02
2018-05-14T03:19:14.485Z,7.93
2018-05-14T03:19:45.689Z,8.27
2018-05-14T03:20:16.905Z,13.52
2018-05-14T03:20:48.109Z,15.25
2018-05-14T03:21:19.361Z,11.23
2018-05-14T03:21:50.573Z,12.75
2018-05-14T03:22:21.781Z,8.93
2018-05-14T03:22:52.985Z,8.90
2018-05-14T03:23:24.215Z,7.93
2018-05-14T03:23:55.436Z,8.45
2018-05-14T03:24:26.657Z,9.70
2018-05-14T03:24:57.931Z,8.98
2018-05-14T03:25:29.142Z,10.50
2018-05-14T03:26:00.361Z,11.10
2018-05-14T03:26:31.560Z,10.40
2018-05-14T03:27:02.761Z,8.23
2018-05-14T03:27:34.001Z,7.72
2018-05-14T03:28:05.218Z,10.93
2018-05-14T03:28:36.434Z,10.02
2018-05-14T03:29:07.651Z,8.60
2018-05-14T03:29:38.854Z,7.97
2018-05-14T03:30:10.106Z,9.85
2018-05-14T03:30:41.318Z,9.35
2018-05-14T03:31:12.533Z,13.48
2018-05-14T03:31:43.780Z,9.98
2018-05-14T03:32:14.990Z,10.75
2018-05-14T03:32:46.217Z,12.50
2018-05-14T03:33:17.485Z,9.32
2018-05-14T03:33:48.710Z,10.27
2018-05-14T03:34:19.937Z,11.50
2018-05-14T03:34:51.152Z,9.40
2018-05-14T03:35:22.373Z,10.05
2018-05-14T03:35:53.601Z,10.40
2018-05-14T03:36:24.805Z,9.20
2018-05-14T03:36:56.001Z,11.95
2018-05-14T03:37:27.196Z,13.48
2018-05-14T03:37:58.477Z,9.93
2018-05-14T03:38:29.730Z,7.65
2018-05-14T03:39:00.930Z,9.35
2018-05-14T03:39:32.162Z,11.52
2018-05-14T03:40:03.377Z,9.02
2018-05-14T03:40:34.710Z,10.90
2018-05-14T03:41:05.929Z,10.13
2018-05-14T03:41:37.161Z,12.15
2018-05-14T03:42:08.416Z,12.80
2018-05-14T03:42:39.646Z,14.45
2018-05-14T03:43:10.901Z,13.40
2018-05-14T03:43:42.117Z,12.37
2018-05-14T03:44:13.336Z,15.52
2018-05-14T03:44:44.556Z,10.52
2018-05-14T03:45:15.764Z,10.57
2018-05-14T03:45:46.981Z,11.85
2018-05-14T03:46:18.229Z,14.87
2018-05-14T03:46:49.447Z,13.02
2018-05-14T03:47:20.694Z,11.40
2018-05-14T03:47:51.904Z,10.32
2018-05-14T03:48:23.120Z,15.18
2018-05-14T03:48:54.344Z,15.55
2018-05-14T03:49:25.590Z,10.10
2018-05-14T03:49:56.813Z,13.13
2018-05-14T03:50:28.021Z,10.98
2018-05-14T03:50:59.249Z,11.07
2018-05-14T03:51:30.465Z,11.63
2018-05-14T03:52:01.696Z,10.82
2018-05-14T03:52:32.919Z,10.85
2018-05-14T03:53:04.156Z,10.43
2018-05-14T03:53:35.368Z,10.30
2018-05-14T03:54:06.574Z,10.57
2018-05-14T03:54:37.791Z,11.02
2018-05-14T03:55:09.001Z,11.18
2018-05-14T03:55:40.217Z,9.93
2018-05-14T03:56:11.433Z,10.93
2018-05-14T03:56:42.642Z,12.70
2018-05-14T03:57:13.886Z,12.90
2018-05-14T03:57:45.093Z,10.90
2018-05-14T03:58:16.312Z,8.68
2018-05-14T03:58:47.513Z,8.00
2018-05-14T03:59:18.717Z,8.75
2018-05-14T03:59:49.928Z,9.98
2018-05-14T04:00:21.138Z,8.15
2018-05-14T04:00:52.397Z,12.77
2018-05-14T04:01:23.609Z,11.85
2018-05-14T04:01:54.825Z,10.90
2018-05-14T04:02:26.055Z,15.68
2018-05-14T04:02:57.270Z,15.45
2018-05-14T04:03:28.490Z,16.55
2018-05-14T04:03:59.697Z,14.07
2018-05-14T04:04:30.936Z,18.27
2018-05-14T04:05:02.137Z,16.83
2018-05-14T04:05:33.349Z,15.82
2018-05-14T04:06:04.539Z,11.45
2018-05-14T04:06:35.722Z,13.70
2018-05-14T04:07:06.926Z,18.40
2018-05-14T04:07:38.142Z,18.35
2018-05-14T04:08:09.390Z,16.08
2018-05-14T04:08:40.604Z,18.30
2018-05-14T04:09:11.813Z,18.48
2018-05-14T04:09:43.043Z,13.90
2018-05-14T04:10:14.250Z,17.15
2018-05-14T04:10:45.462Z,19.20
2018-05-14T04:11:16.672Z,20.90
2018-05-14T04:11:47.917Z,17.85
2018-05-14T04:12:19.136Z,18.70
2018-05-14T04:12:50.366Z,17.98
2018-05-14T04:13:21.609Z,21.25
2018-05-14T04:13:52.818Z,17.52
2018-05-14T04:14:24.026Z,21.87
2018-05-14T04:14:55.241Z,19.90
2018-05-14T04:15:26.451Z,17.70
2018-05-14T04:15:57.669Z,22.55
2018-05-14T04:16:28.907Z,19.30
2018-05-14T04:17:00.167Z,25.33
2018-05-14T04:17:31.378Z,13.70
2018-05-14T04:18:02.605Z,14.80
2018-05-14T04:18:33.869Z,15.18
2018-05-14T04:19:05.078Z,19.40
2018-05-14T04:19:36.274Z,21.23
2018-05-14T04:20:07.485Z,17.50
2018-05-14T04:20:38.703Z,22.52
2018-05-14T04:21:09.997Z,16.05
2018-05-14T04:21:41.246Z,19.25
2018-05-14T04:22:12.462Z,20.05
2018-05-14T04:22:43.677Z,17.10
2018-05-14T04:23:14.887Z,21.00
2018-05-14T04:23:46.109Z,22.80
2018-05-14T04:24:17.339Z,22.00
2018-05-14T04:24:48.589Z,21.27
2018-05-14T04:25:19.781Z,19.77
2018-05-14T04:25:50.984Z,21.92
2018-05-14T04:26:22.200Z,19.58
2018-05-14T04:26:53.457Z,20.60
2018-05-14T04:27:24.660Z,16.87
2018-05-14T04:27:55.869Z,15.10
2018-05-14T04:28:27.084Z,15.38
2018-05-14T04:28:58.291Z,17.77
2018-05-14T04:29:29.506Z,17.30
2018-05-14T04:30:00.746Z,18.85
2018-05-14T04:30:31.957Z,14.45
2018-05-14T04:31:03.169Z,22.00
2018-05-14T04:31:34.377Z,17.37
2018-05-14T04:32:05.625Z,18.73
2018-05-14T04:32:36.845Z,14.32
2018-05-14T04:33:08.057Z,16.37
2018-05-14T04:33:39.274Z,17.92
2018-05-14T04:34:10.487Z,16.48
2018-05-14T04:34:41.706Z,18.30
2018-05-14T04:35:12.912Z,15.60
2018-05-14T04:35:44.141Z,16.12
2018-05-14T04:36:15.434Z,20.27
2018-05-14T04:36:46.676Z,13.38
2018-05-14T04:37:17.907Z,16.58
2018-05-14T04:37:49.117Z,15.02
2018-05-14T04:38:20.386Z,15.52
2018-05-14T04:38:51.601Z,15.95
2018-05-14T04:39:22.836Z,17.58
2018-05-14T04:39:54.049Z,24.63
2018-05-14T04:40:25.257Z,13.95
2018-05-14T04:40:56.524Z,20.70
2018-05-14T04:41:27.741Z,16.90
2018-05-14T04:41:58.987Z,20.23
2018-05-14T04:42:30.210Z,24.48
2018-05-14T04:43:01.444Z,27.48
2018-05-14T04:43:32.643Z,24.30
2018-05-14T04:44:03.862Z,26.75
2018-05-14T04:44:35.071Z,25.10
2018-05-14T04:45:06.280Z,19.20
2018-05-14T04:45:38.496Z,17.05
2018-05-14T04:46:09.712Z,19.90
2018-05-14T04:46:41.008Z,18.87
2018-05-14T04:47:12.235Z,26.08
2018-05-14T04:47:43.449Z,20.20
2018-05-14T04:48:14.659Z,16.85
2018-05-14T04:48:45.881Z,15.93
2018-05-14T04:49:17.086Z,19.92
2018-05-14T04:49:48.301Z,21.17
2018-05-14T04:50:19.508Z,18.05
2018-05-14T04:50:50.718Z,22.15
2018-05-14T04:51:21.948Z,18.92
2018-05-14T04:51:53.217Z,26.35
2018-05-14T04:52:24.432Z,19.85
2018-05-14T04:52:55.645Z,17.67
2018-05-14T04:53:26.843Z,16.65
2018-05-14T04:53:58.054Z,21.52
2018-05-14T04:54:29.274Z,15.85
2018-05-14T04:55:00.542Z,18.40
2018-05-14T04:55:32.334Z,21.00
2018-05-14T04:56:03.607Z,22.58
2018-05-14T04:56:35.839Z,21.50
2018-05-14T04:57:07.783Z,20.20
2018-05-14T04:57:39.464Z,20.58
2018-05-14T04:58:10.719Z,21.23
2018-05-14T04:58:41.955Z,17.12
2018-05-14T04:59:13.216Z,18.55
2018-05-14T04:59:44.432Z,17.02
2018-05-14T05:00:15.638Z,17.75
2018-05-14T05:00:46.857Z,18.02
2018-05-14T05:01:18.133Z,19.75
2018-05-14T05:01:50.019Z,18.83
2018-05-14T05:02:22.262Z,20.33
2018-05-14T05:02:53.513Z,16.62
2018-05-14T05:03:24.742Z,22.58
2018-05-14T05:03:55.972Z,18.90
2018-05-14T05:04:27.192Z,19.95
2018-05-14T05:04:58.493Z,21.00
2018-05-14T05:05:29.770Z,17.42
2018-05-14T05:06:01.044Z,15.85
2018-05-14T05:06:32.418Z,18.87
2018-05-14T05:07:04.362Z,20.58
2018-05-14T05:07:36.342Z,16.77
2018-05-14T05:08:08.662Z,20.27
2018-05-14T05:08:39.923Z,17.42
2018-05-14T05:09:11.238Z,19.02
2018-05-14T05:09:42.470Z,17.60
2018-05-14T05:10:14.812Z,14.40
2018-05-14T05:10:46.100Z,19.00
2018-05-14T05:11:17.507Z,16.80
2018-05-14T05:11:49.294Z,20.00
2018-05-14T05:12:20.602Z,19.70
2018-05-14T05:12:51.874Z,19.73
2018-05-14T05:13:23.160Z,16.80
2018-05-14T05:13:54.460Z,14.15
2018-05-14T05:14:26.175Z,16.12
2018-05-14T05:14:58.061Z,15.88
2018-05-14T05:15:29.345Z,16.98
2018-05-14T05:16:00.617Z,15.15
2018-05-14T05:16:32.864Z,17.75
2018-05-14T05:17:04.213Z,20.35
2018-05-14T05:17:35.377Z,15.48
2018-05-14T05:18:06.613Z,15.52
2018-05-14T05:18:37.844Z,13.60
2018-05-14T05:19:09.068Z,11.45
2018-05-14T05:19:40.291Z,17.00
2018-05-14T05:20:11.509Z,16.45
2018-05-14T05:20:42.730Z,12.55
2018-05-14T05:21:13.978Z,16.85
2018-05-14T05:21:45.201Z,11.18
2018-05-14T05:22:16.455Z,14.55
2018-05-14T05:22:47.698Z,11.98
2018-05-14T05:23:18.918Z,13.20
2018-05-14T05:23:50.271Z,12.20
2018-05-14T05:24:21.537Z,14.98
2018-05-14T05:24:52.749Z,11.95
2018-05-14T05:25:23.962Z,13.70
2018-05-14T05:25:55.211Z,14.90
2018-05-14T05:26:26.427Z,10.57
2018-05-14T05:26:57.673Z,10.85
2018-05-14T05:27:28.877Z,14.40
2018-05-14T05:28:00.110Z,10.68
2018-05-14T05:28:31.333Z,11.70
2018-05-14T05:29:02.601Z,13.60
2018-05-14T05:29:33.837Z,14.75
2018-05-14T05:30:05.057Z,11.75
2018-05-14T05:30:36.268Z,10.50
2018-05-14T05:31:07.527Z,11.15
2018-05-14T05:31:38.805Z,13.73
2018-05-14T05:32:10.022Z,10.38
2018-05-14T05:32:41.279Z,11.43
2018-05-14T05:33:12.489Z,12.00
2018-05-14T05:33:43.763Z,12.10
2018-05-14T05:34:15.067Z,13.35
2018-05-14T05:34:47.351Z,14.63
2018-05-14T05:35:18.619Z,12.77
2018-05-14T05:35:49.981Z,14.65
2018-05-14T05:36:21.293Z,15.45
2018-05-14T05:36:52.550Z,12.10
2018-05-14T05:37:23.808Z,14.18
2018-05-14T05:37:55.058Z,12.05
2018-05-14T05:38:26.270Z,14.15
2018-05-14T05:38:57.533Z,13.02
2018-05-14T05:39:28.759Z,14.27
2018-05-14T05:39:59.966Z,11.60
2018-05-14T05:40:31.182Z,12.10
2018-05-14T05:41:02.431Z,13.77
2018-05-14T05:41:34.393Z,16.55
2018-05-14T05:42:05.717Z,14.95
2018-05-14T05:42:37.440Z,12.10
2018-05-14T05:43:09.770Z,10.98
2018-05-14T05:43:41.114Z,14.65
2018-05-14T05:44:12.369Z,13.32
2018-05-14T05:44:43.572Z,14.60
2018-05-14T05:45:14.858Z,16.45
2018-05-14T05:45:46.286Z,21.33
2018-05-14T05:46:17.529Z,18.90
2018-05-14T05:46:48.736Z,16.60
2018-05-14T05:47:19.952Z,16.70
2018-05-14T05:47:51.204Z,16.73
2018-05-14T05:48:22.436Z,15.90
2018-05-14T05:48:53.657Z,18.67
2018-05-14T05:49:24.948Z,18.10
2018-05-14T05:49:56.285Z,14.85
2018-05-14T05:50:28.071Z,15.63
2018-05-14T05:51:03.445Z,14.50
2018-05-14T05:51:35.370Z,13.60
2018-05-14T05:52:06.845Z,14.57
2018-05-14T05:52:38.381Z,13.82
2018-05-14T05:53:09.952Z,14.25
2018-05-14T05:53:41.326Z,12.82
2018-05-14T05:54:12.850Z,15.80
2018-05-14T05:54:44.148Z,13.65
2018-05-14T05:55:15.507Z,17.27
2018-05-14T05:55:46.912Z,13.80
2018-05-14T05:56:18.183Z,17.15
2018-05-14T05:56:50.133Z,17.77
2018-05-14T05:57:21.659Z,12.48
2018-05-14T05:57:53.010Z,11.75
2018-05-14T05:58:24.521Z,17.87
2018-05-14T05:58:56.142Z,14.20
2018-05-14T05:59:28.201Z,11.77
2018-05-14T06:00:00.181Z,12.75
2018-05-14T06:00:31.614Z,17.50
2018-05-14T06:01:02.993Z,15.60
2018-05-14T06:01:34.500Z,14.63
2018-05-14T06:02:05.854Z,14.60
2018-05-14T06:02:37.398Z,11.90
2018-05-14T06:03:08.690Z,14.85
2018-05-14T06:03:39.982Z,12.63
2018-05-14T06:04:11.514Z,16.55
2018-05-14T06:04:42.927Z,13.48
2018-05-14T06:05:14.263Z,13.98
2018-05-14T06:05:46.622Z,13.55
2018-05-14T06:06:17.876Z,12.00
2018-05-14T06:06:49.142Z,16.35
2018-05-14T06:07:20.420Z,16.52
2018-05-14T06:07:51.801Z,13.50
2018-05-14T06:08:23.110Z,12.18
2018-05-14T06:08:54.453Z,14.48
2018-05-14T06:09:25.917Z,14.32
2018-05-14T06:09:57.220Z,11.98
2018-05-14T06:10:29.045Z,15.45
2018-05-14T06:11:00.357Z,16.85
2018-05-14T06:11:31.711Z,17.15
2018-05-14T06:12:02.989Z,14.60
2018-05-14T06:12:34.256Z,13.00
2018-05-14T06:13:05.541Z,15.10
2018-05-14T06:13:37.006Z,13.62
2018-05-14T06:14:08.243Z,13.18
2018-05-14T06:14:39.469Z,16.75
2018-05-14T06:15:11.270Z,13.48
2018-05-14T06:15:42.551Z,18.60
2018-05-14T06:16:13.822Z,14.50
2018-05-14T06:16:45.158Z,18.75
2018-05-14T06:17:16.472Z,17.45
2018-05-14T06:17:47.749Z,14.05
2018-05-14T06:18:19.080Z,18.23
2018-05-14T06:18:50.814Z,13.62
2018-05-14T06:19:22.162Z,14.48
2018-05-14T06:19:54.053Z,13.55
2018-05-14T06:20:26.899Z,17.90
2018-05-14T06:20:58.304Z,14.18
2018-05-14T06:21:30.537Z,16.00
2018-05-14T06:22:01.903Z,14.30
2018-05-14T06:22:35.424Z,13.10
2018-05-14T06:23:06.781Z,14.20
2018-05-14T06:23:39.995Z,11.80
2018-05-14T06:24:11.637Z,14.52
2018-05-14T06:24:48.489Z,15.68
2018-05-14T06:25:21.003Z,14.73
2018-05-14T06:25:59.029Z,14.07
2018-05-14T06:26:31.606Z,16.35
2018-05-14T06:27:39.312Z,19.00
2018-05-14T06:28:10.707Z,16.25
2018-05-14T06:28:42.642Z,12.63
2018-05-14T06:29:13.958Z,15.00
2018-05-14T06:29:45.269Z,12.95
2018-05-14T06:30:16.595Z,12.63
2018-05-14T06:30:47.962Z,15.63
2018-05-14T06:31:20.314Z,13.98
2018-05-14T06:31:52.851Z,12.68
2018-05-14T06:32:24.217Z,12.73
2018-05-14T06:32:58.399Z,13.25
2018-05-14T06:33:31.450Z,13.50
2018-05-14T06:34:02.754Z,15.02
2018-05-14T06:34:33.999Z,15.20
2018-05-14T06:35:05.912Z,12.20
2018-05-14T06:35:37.250Z,13.10
2018-05-14T06:36:08.473Z,18.27
2018-05-14T06:36:39.708Z,13.57
2018-05-14T06:37:10.937Z,13.85
2018-05-14T06:37:42.149Z,12.10
2018-05-14T06:38:13.373Z,14.40
2018-05-14T06:38:44.591Z,13.30
2018-05-14T06:39:15.840Z,13.93
2018-05-14T06:39:47.049Z,13.38
2018-05-14T06:40:18.380Z,14.15
2018-05-14T06:40:49.890Z,13.05
2018-05-14T06:41:22.074Z,11.32
2018-05-14T06:41:54.819Z,15.65
2018-05-14T06:42:26.149Z,15.23
2018-05-14T06:42:57.465Z,12.63
2018-05-14T06:43:28.792Z,13.32
2018-05-14T06:44:00.647Z,12.55
2018-05-14T06:44:31.954Z,12.82
2018-05-14T06:45:03.374Z,15.55
2018-05-14T06:45:34.658Z,13.55
2018-05-14T06:46:05.872Z,11.20